createdAt,value
2018-03-22T00:06:41.467Z,92.13
2018-03-22T00:16:39.034Z,92.65
2018-03-22T00:26:36.651Z,91.81
2018-03-22T00:36:31.302Z,91.75
2018-03-22T00:46:29.148Z,91.96
2018-03-22T00:56:27.066Z,91.85
2018-03-22T01:06:24.971Z,92.83
2018-03-22T01:16:20.919Z,93.78
2018-03-22T01:26:19.245Z,93.88
2018-03-22T01:36:17.522Z,93.93
2018-03-22T01:46:14.952Z,95.13
2018-03-22T01:56:12.463Z,94.35
2018-03-22T02:06:09.732Z,94.87
2018-03-22T02:16:07.131Z,95.86
2018-03-22T02:26:02.816Z,95.48
2018-03-22T02:36:01.083Z,95.17
2018-03-22T02:45:59.633Z,96.26
2018-03-22T02:55:56.083Z,96.47
2018-03-22T03:05:51.344Z,96.26
2018-03-22T03:15:48.831Z,98.14
2018-03-22T03:25:45.028Z,97.15
2018-03-22T03:35:41.275Z,97.05
2018-03-22T03:45:39.377Z,96.20
2018-03-22T03:55:36.570Z,96.87
2018-03-22T04:05:34.768Z,97.30
2018-03-22T04:15:29.750Z,96.67
2018-03-22T04:25:25.508Z,97.45
2018-03-22T04:35:23.477Z,96.92
2018-03-22T04:45:18.958Z,97.24
2018-03-22T04:55:14.261Z,96.71
2018-03-22T05:05:12.288Z,96.39
2018-03-22T05:15:08.677Z,96.71
2018-03-22T05:25:06.354Z,96.71
2018-03-22T05:35:04.141Z,97.72
2018-03-22T05:44:57.705Z,95.53
2018-03-22T05:54:52.414Z,93.66
2018-03-22T06:04:51.154Z,93.09
2018-03-22T06:14:48.379Z,90.80
2018-03-22T06:24:42.826Z,88.49
2018-03-22T06:34:41.425Z,85.86
2018-03-22T06:44:40.044Z,85.30
2018-03-22T06:54:37.962Z,82.15
2018-03-22T07:04:34.488Z,81.35
2018-03-22T07:14:33.423Z,80.23
2018-03-22T07:24:31.316Z,76.20
2018-03-22T07:34:25.542Z,78.10
2018-03-22T07:44:23.875Z,71.09
2018-03-22T07:54:20.030Z,66.87
2018-03-22T08:03:56.994Z,69.07
2018-03-22T08:13:33.655Z,66.68
2018-03-22T08:23:10.521Z,65.74
2018-03-22T08:32:47.433Z,63.93
2018-03-22T08:42:24.306Z,63.56
2018-03-22T08:52:01.328Z,64.07
2018-03-22T09:01:38.189Z,61.58
2018-03-22T09:11:14.356Z,61.82
2018-03-22T09:20:51.598Z,64.07
2018-03-22T09:30:28.860Z,61.32
2018-03-22T09:40:05.094Z,60.51
2018-03-22T09:49:42.557Z,63.93
2018-03-22T09:59:19.436Z,59.41
2018-03-22T10:08:55.904Z,60.31
2018-03-22T10:18:33.461Z,60.08
2018-03-22T10:28:09.899Z,57.53
2018-03-22T10:37:47.639Z,57.01
2018-03-22T10:47:26.451Z,55.87
2018-03-22T10:56:59.759Z,55.54
2018-03-22T11:06:37.465Z,51.89
2018-03-22T11:16:13.556Z,48.21
2018-03-22T11:25:50.710Z,41.53
2018-03-22T11:35:27.334Z,49.39
2018-03-22T11:45:03.978Z,45.68
2018-03-22T11:54:40.601Z,44.26
2018-03-22T12:04:17.168Z,47.58
2018-03-22T12:13:53.436Z,43.13
2018-03-22T12:23:28.866Z,49.40
2018-03-22T12:33:05.912Z,43.54
2018-03-22T12:42:42.634Z,43.93
2018-03-22T12:52:19.446Z,47.73
2018-03-22T13:01:54.223Z,46.10
2018-03-22T13:11:31.908Z,47.49
2018-03-22T13:21:09.863Z,42.42
2018-03-22T13:30:47.479Z,44.33
2018-03-22T13:40:31.051Z,42.73
2018-03-22T13:50:01.449Z,39.37
2018-03-22T13:59:37.835Z,37.76
2018-03-22T14:09:18.023Z,40.64
2018-03-22T14:18:56.452Z,39.09
2018-03-22T14:28:35.369Z,37.76
2018-03-22T14:38:10.591Z,40.25
2018-03-22T14:47:43.528Z,42.42
2018-03-22T14:57:17.287Z,40.20
2018-03-22T15:06:53.652Z,42.54
2018-03-22T15:16:16.588Z,43.84
2018-03-22T15:25:56.260Z,46.39
2018-03-22T15:35:22.763Z,47.71
2018-03-22T15:44:55.592Z,47.09
2018-03-22T15:54:28.623Z,47.40
2018-03-22T16:04:10.670Z,49.87
2018-03-22T16:13:49.590Z,46.24
2018-03-22T16:23:23.263Z,50.28
2018-03-22T16:32:52.556Z,53.13
2018-03-22T16:42:26.125Z,58.38
2018-03-22T16:52:00.809Z,61.86
2018-03-22T17:01:35.462Z,64.33
2018-03-22T17:11:10.741Z,62.31
2018-03-22T17:20:45.880Z,67.70
2018-03-22T17:30:39.993Z,66.15
2018-03-22T17:40:37.260Z,68.15
2018-03-22T17:50:33.687Z,70.80
2018-03-22T18:00:29.836Z,70.76
2018-03-22T18:10:26.679Z,71.59
2018-03-22T18:20:23.276Z,75.19
2018-03-22T18:30:19.385Z,74.57
2018-03-22T18:40:16.153Z,77.13
2018-03-22T18:50:12.427Z,78.62
2018-03-22T19:00:09.603Z,80.91
2018-03-22T19:10:05.601Z,81.98
2018-03-22T19:20:01.498Z,83.23
2018-03-22T19:29:56.163Z,84.56
2018-03-22T19:39:50.817Z,82.23
2018-03-22T19:49:48.188Z,83.20
2018-03-22T19:59:44.999Z,82.79
2018-03-22T20:09:37.867Z,83.25
2018-03-22T20:19:31.961Z,85.33
2018-03-22T20:29:29.381Z,85.02
2018-03-22T20:39:26.300Z,85.47
2018-03-22T20:49:22.699Z,85.68
2018-03-22T20:59:16.616Z,87.01
2018-03-22T21:09:12.649Z,88.89
2018-03-22T21:19:10.297Z,86.49
2018-03-22T21:29:03.698Z,88.09
2018-03-22T21:39:00.174Z,87.01
2018-03-22T21:48:57.806Z,87.26
2018-03-22T21:58:53.290Z,88.20
2018-03-22T22:08:50.320Z,89.97
2018-03-22T22:18:47.757Z,89.81
2018-03-22T22:28:45.211Z,88.55
2018-03-22T22:38:41.996Z,89.49
2018-03-22T22:48:38.850Z,90.47
2018-03-22T22:58:35.839Z,91.31
2018-03-22T23:08:33.822Z,91.03
2018-03-22T23:18:32.761Z,91.87
2018-03-22T23:28:28.386Z,92.75
2018-03-22T23:38:25.842Z,93.13
2018-03-22T23:48:21.822Z,92.85
2018-03-22T23:58:18.984Z,92.65
